sensor_id;sensor_type;location;lat;lon;timestamp;temperature;humidity
12872;DHT22;6504;53.766;9.626;2022-09-23T00:01:32;11.30;99.90
12872;DHT22;6504;53.766;9.626;2022-09-23T00:04:00;11.30;99.90
12872;DHT22;6504;53.766;9.626;2022-09-23T00:06:28;11.30;99.90
12872;DHT22;6504;53.766;9.626;2022-09-23T00:08:56;11.30;99.90
12872;DHT22;6504;53.766;9.626;2022-09-23T00:11:45;11.30;99.90
12872;DHT22;6504;53.766;9.626;2022-09-23T00:14:31;11.30;99.90
12872;DHT22;6504;53.766;9.626;2022-09-23T00:17:00;11.20;99.90
12872;DHT22;6504;53.766;9.626;2022-09-23T00:19:28;11.20;99.90
12872;DHT22;6504;53.766;9.626;2022-09-23T00:21:56;11.20;99.90
12872;DHT22;6504;53.766;9.626;2022-09-23T00:24:25;11.10;99.90
12872;DHT22;6504;53.766;9.626;2022-09-23T00:26:57;11.20;99.90
12872;DHT22;6504;53.766;9.626;2022-09-23T00:29:26;11.10;99.90
12872;DHT22;6504;53.766;9.626;2022-09-23T00:31:54;11.10;99.90
12872;DHT22;6504;53.766;9.626;2022-09-23T00:34:23;11.10;99.90
12872;DHT22;6504;53.766;9.626;2022-09-23T00:36:53;11.10;99.90
12872;DHT22;6504;53.766;9.626;2022-09-23T00:39:22;11.10;99.90
12872;DHT22;6504;53.766;9.626;2022-09-23T00:41:51;11.10;99.90
12872;DHT22;6504;53.766;9.626;2022-09-23T00:44:45;11.10;99.90
12872;DHT22;6504;53.766;9.626;2022-09-23T00:47:20;11.00;99.90
12872;DHT22;6504;53.766;9.626;2022-09-23T00:49:56;11.00;99.90
12872;DHT22;6504;53.766;9.626;2022-09-23T00:52:29;11.00;99.90
12872;DHT22;6504;53.766;9.626;2022-09-23T00:55:00;11.00;99.90
12872;DHT22;6504;53.766;9.626;2022-09-23T00:57:34;11.00;99.90
12872;DHT22;6504;53.766;9.626;2022-09-23T01:00:04;11.00;99.90
12872;DHT22;6504;53.766;9.626;2022-09-23T01:02:33;11.00;99.90
12872;DHT22;6504;53.766;9.626;2022-09-23T01:05:06;10.90;99.90
12872;DHT22;6504;53.766;9.626;2022-09-23T01:07:37;10.90;99.90
12872;DHT22;6504;53.766;9.626;2022-09-23T01:10:07;10.90;99.90
12872;DHT22;6504;53.766;9.626;2022-09-23T01:12:52;10.90;99.90
12872;DHT22;6504;53.766;9.626;2022-09-23T01:15:29;10.80;99.90
12872;DHT22;6504;53.766;9.626;2022-09-23T01:18:07;10.80;99.90
12872;DHT22;6504;53.766;9.626;2022-09-23T01:20:57;10.80;99.90
12872;DHT22;6504;53.766;9.626;2022-09-23T01:24:03;10.80;99.90
12872;DHT22;6504;53.766;9.626;2022-09-23T01:33:06;10.80;99.90
12872;DHT22;6504;53.766;9.626;2022-09-23T01:35:49;10.80;99.90
12872;DHT22;6504;53.766;9.626;2022-09-23T01:38:36;10.80;99.90
12872;DHT22;6504;53.766;9.626;2022-09-23T01:41:13;10.80;99.90
12872;DHT22;6504;53.766;9.626;2022-09-23T01:43:48;10.70;99.90
12872;DHT22;6504;53.766;9.626;2022-09-23T01:46:26;10.70;99.90
12872;DHT22;6504;53.766;9.626;2022-09-23T01:49:05;10.70;99.90
12872;DHT22;6504;53.766;9.626;2022-09-23T01:51:37;10.70;99.90
12872;DHT22;6504;53.766;9.626;2022-09-23T01:54:11;10.70;99.90
12872;DHT22;6504;53.766;9.626;2022-09-23T01:56:46;10.70;99.90
12872;DHT22;6504;53.766;9.626;2022-09-23T01:59:21;10.70;99.90
12872;DHT22;6504;53.766;9.626;2022-09-23T02:01:56;10.70;99.90
12872;DHT22;6504;53.766;9.626;2022-09-23T02:04:33;10.70;99.90
12872;DHT22;6504;53.766;9.626;2022-09-23T02:07:06;10.70;99.90
12872;DHT22;6504;53.766;9.626;2022-09-23T02:09:42;10.70;99.90
12872;DHT22;6504;53.766;9.626;2022-09-23T02:12:17;10.60;99.90
12872;DHT22;6504;53.766;9.626;2022-09-23T02:14:51;10.60;99.90
12872;DHT22;6504;53.766;9.626;2022-09-23T02:17:25;10.60;99.90
12872;DHT22;6504;53.766;9.626;2022-09-23T02:20:02;10.60;99.90
12872;DHT22;6504;53.766;9.626;2022-09-23T02:22:36;10.60;99.90
12872;DHT22;6504;53.766;9.626;2022-09-23T02:25:09;10.60;99.90
12872;DHT22;6504;53.766;9.626;2022-09-23T02:27:43;10.60;99.90
12872;DHT22;6504;53.766;9.626;2022-09-23T02:30:17;10.60;99.90
12872;DHT22;6504;53.766;9.626;2022-09-23T02:32:50;10.60;99.90
12872;DHT22;6504;53.766;9.626;2022-09-23T02:35:28;10.60;99.90
12872;DHT22;6504;53.766;9.626;2022-09-23T02:38:12;10.60;99.90
12872;DHT22;6504;53.766;9.626;2022-09-23T02:40:49;10.60;99.90
12872;DHT22;6504;53.766;9.626;2022-09-23T02:43:26;10.50;99.90
12872;DHT22;6504;53.766;9.626;2022-09-23T02:46:02;10.50;99.90
12872;DHT22;6504;53.766;9.626;2022-09-23T02:48:34;10.50;99.90
12872;DHT22;6504;53.766;9.626;2022-09-23T02:51:07;10.50;99.90
12872;DHT22;6504;53.766;9.626;2022-09-23T02:53:36;10.50;99.90
12872;DHT22;6504;53.766;9.626;2022-09-23T02:56:13;10.50;99.90
12872;DHT22;6504;53.766;9.626;2022-09-23T02:58:45;10.50;99.90
12872;DHT22;6504;53.766;9.626;2022-09-23T03:01:21;10.50;99.90
12872;DHT22;6504;53.766;9.626;2022-09-23T03:03:58;10.50;99.90
12872;DHT22;6504;53.766;9.626;2022-09-23T03:06:42;10.40;99.90
12872;DHT22;6504;53.766;9.626;2022-09-23T03:09:19;10.40;99.90
12872;DHT22;6504;53.766;9.626;2022-09-23T03:11:58;10.40;99.90
12872;DHT22;6504;53.766;9.626;2022-09-23T03:14:39;10.40;99.90
12872;DHT22;6504;53.766;9.626;2022-09-23T03:17:13;10.40;99.90
12872;DHT22;6504;53.766;9.626;2022-09-23T03:19:48;10.40;99.90
12872;DHT22;6504;53.766;9.626;2022-09-23T03:22:24;10.30;99.90
12872;DHT22;6504;53.766;9.626;2022-09-23T03:24:57;10.30;99.90
12872;DHT22;6504;53.766;9.626;2022-09-23T03:27:28;10.30;99.90
12872;DHT22;6504;53.766;9.626;2022-09-23T03:29:58;10.30;99.90
12872;DHT22;6504;53.766;9.626;2022-09-23T03:32:30;10.30;99.90
12872;DHT22;6504;53.766;9.626;2022-09-23T03:35:04;10.20;99.90
12872;DHT22;6504;53.766;9.626;2022-09-23T03:37:39;10.20;99.90
12872;DHT22;6504;53.766;9.626;2022-09-23T03:40:15;10.20;99.90
12872;DHT22;6504;53.766;9.626;2022-09-23T03:42:45;10.20;99.90
12872;DHT22;6504;53.766;9.626;2022-09-23T03:45:17;10.10;99.90
12872;DHT22;6504;53.766;9.626;2022-09-23T03:47:46;10.10;99.90
12872;DHT22;6504;53.766;9.626;2022-09-23T03:50:15;10.10;99.90
12872;DHT22;6504;53.766;9.626;2022-09-23T03:52:45;10.10;99.90
12872;DHT22;6504;53.766;9.626;2022-09-23T03:55:17;10.10;99.90
12872;DHT22;6504;53.766;9.626;2022-09-23T03:57:48;10.10;99.90
12872;DHT22;6504;53.766;9.626;2022-09-23T04:00:16;10.10;99.90
12872;DHT22;6504;53.766;9.626;2022-09-23T04:02:44;10.10;99.90
12872;DHT22;6504;53.766;9.626;2022-09-23T04:05:15;10.00;99.90
12872;DHT22;6504;53.766;9.626;2022-09-23T04:07:45;10.00;99.90
12872;DHT22;6504;53.766;9.626;2022-09-23T04:10:17;10.00;99.90
12872;DHT22;6504;53.766;9.626;2022-09-23T04:12:45;10.00;99.90
12872;DHT22;6504;53.766;9.626;2022-09-23T04:15:13;10.00;99.90
12872;DHT22;6504;53.766;9.626;2022-09-23T04:17:41;10.00;99.90
12872;DHT22;6504;53.766;9.626;2022-09-23T04:20:12;10.00;99.90
12872;DHT22;6504;53.766;9.626;2022-09-23T04:22:41;10.00;99.90
12872;DHT22;6504;53.766;9.626;2022-09-23T04:25:13;10.00;99.90
12872;DHT22;6504;53.766;9.626;2022-09-23T04:27:41;9.90;99.90
12872;DHT22;6504;53.766;9.626;2022-09-23T04:30:12;9.90;99.90
12872;DHT22;6504;53.766;9.626;2022-09-23T04:32:40;10.00;99.90
12872;DHT22;6504;53.766;9.626;2022-09-23T04:35:11;9.90;99.90
12872;DHT22;6504;53.766;9.626;2022-09-23T04:37:39;9.90;99.90
12872;DHT22;6504;53.766;9.626;2022-09-23T04:40:08;9.90;99.90
12872;DHT22;6504;53.766;9.626;2022-09-23T04:42:40;9.90;99.90
12872;DHT22;6504;53.766;9.626;2022-09-23T04:45:09;9.90;99.90
12872;DHT22;6504;53.766;9.626;2022-09-23T04:47:37;9.90;99.90
12872;DHT22;6504;53.766;9.626;2022-09-23T04:50:08;10.00;99.90
12872;DHT22;6504;53.766;9.626;2022-09-23T04:52:36;9.90;99.90
12872;DHT22;6504;53.766;9.626;2022-09-23T04:55:06;9.90;99.90
12872;DHT22;6504;53.766;9.626;2022-09-23T04:57:38;9.90;99.90
12872;DHT22;6504;53.766;9.626;2022-09-23T05:00:08;9.90;99.90
12872;DHT22;6504;53.766;9.626;2022-09-23T05:02:42;9.90;99.90
12872;DHT22;6504;53.766;9.626;2022-09-23T05:05:10;9.90;99.90
12872;DHT22;6504;53.766;9.626;2022-09-23T05:07:46;9.80;99.90
12872;DHT22;6504;53.766;9.626;2022-09-23T05:10:17;9.80;99.90
12872;DHT22;6504;53.766;9.626;2022-09-23T05:12:47;9.80;99.90
12872;DHT22;6504;53.766;9.626;2022-09-23T05:15:25;9.80;99.90
12872;DHT22;6504;53.766;9.626;2022-09-23T05:17:56;9.80;99.90
12872;DHT22;6504;53.766;9.626;2022-09-23T05:20:24;9.70;99.90
12872;DHT22;6504;53.766;9.626;2022-09-23T05:22:55;9.70;99.90
12872;DHT22;6504;53.766;9.626;2022-09-23T05:25:24;9.70;99.90
12872;DHT22;6504;53.766;9.626;2022-09-23T05:27:56;9.70;99.90
12872;DHT22;6504;53.766;9.626;2022-09-23T05:30:24;9.70;99.90
12872;DHT22;6504;53.766;9.626;2022-09-23T05:32:52;9.70;99.90
12872;DHT22;6504;53.766;9.626;2022-09-23T05:35:23;9.70;99.90
12872;DHT22;6504;53.766;9.626;2022-09-23T05:37:51;9.70;99.90
12872;DHT22;6504;53.766;9.626;2022-09-23T05:40:19;9.70;99.90
12872;DHT22;6504;53.766;9.626;2022-09-23T05:42:47;9.70;99.90
12872;DHT22;6504;53.766;9.626;2022-09-23T05:45:21;9.70;99.90
12872;DHT22;6504;53.766;9.626;2022-09-23T05:47:52;9.70;99.90
12872;DHT22;6504;53.766;9.626;2022-09-23T05:50:23;9.70;99.90
12872;DHT22;6504;53.766;9.626;2022-09-23T05:52:51;9.70;99.90
12872;DHT22;6504;53.766;9.626;2022-09-23T05:55:19;9.70;99.90
12872;DHT22;6504;53.766;9.626;2022-09-23T05:57:50;9.70;99.90
12872;DHT22;6504;53.766;9.626;2022-09-23T06:00:18;9.70;99.90
12872;DHT22;6504;53.766;9.626;2022-09-23T06:02:48;9.80;99.90
12872;DHT22;6504;53.766;9.626;2022-09-23T06:05:16;9.80;99.90
12872;DHT22;6504;53.766;9.626;2022-09-23T06:07:44;9.80;99.90
12872;DHT22;6504;53.766;9.626;2022-09-23T06:10:12;9.80;99.90
12872;DHT22;6504;53.766;9.626;2022-09-23T06:12:43;9.80;99.90
12872;DHT22;6504;53.766;9.626;2022-09-23T06:15:11;9.80;99.90
12872;DHT22;6504;53.766;9.626;2022-09-23T06:17:42;9.80;99.90
12872;DHT22;6504;53.766;9.626;2022-09-23T06:20:12;9.80;99.90
12872;DHT22;6504;53.766;9.626;2022-09-23T06:22:42;9.80;99.90
12872;DHT22;6504;53.766;9.626;2022-09-23T06:25:10;9.80;99.90
12872;DHT22;6504;53.766;9.626;2022-09-23T06:27:41;9.80;99.90
12872;DHT22;6504;53.766;9.626;2022-09-23T06:30:10;9.80;99.90
12872;DHT22;6504;53.766;9.626;2022-09-23T06:32:39;9.80;99.90
12872;DHT22;6504;53.766;9.626;2022-09-23T06:35:12;9.80;99.90
12872;DHT22;6504;53.766;9.626;2022-09-23T06:37:53;9.80;99.90
12872;DHT22;6504;53.766;9.626;2022-09-23T06:40:21;9.80;99.90
12872;DHT22;6504;53.766;9.626;2022-09-23T06:42:56;9.80;99.90
12872;DHT22;6504;53.766;9.626;2022-09-23T06:45:25;9.80;99.90
12872;DHT22;6504;53.766;9.626;2022-09-23T06:47:53;9.70;99.90
12872;DHT22;6504;53.766;9.626;2022-09-23T06:50:27;9.70;99.90
12872;DHT22;6504;53.766;9.626;2022-09-23T06:52:56;9.70;99.90
12872;DHT22;6504;53.766;9.626;2022-09-23T06:55:25;9.80;99.90
12872;DHT22;6504;53.766;9.626;2022-09-23T06:57:57;9.80;99.90
12872;DHT22;6504;53.766;9.626;2022-09-23T07:00:25;9.80;99.90
12872;DHT22;6504;53.766;9.626;2022-09-23T07:02:54;9.80;99.90
12872;DHT22;6504;53.766;9.626;2022-09-23T07:05:23;9.90;99.90
12872;DHT22;6504;53.766;9.626;2022-09-23T07:07:52;9.90;99.90
12872;DHT22;6504;53.766;9.626;2022-09-23T07:10:20;9.90;99.90
12872;DHT22;6504;53.766;9.626;2022-09-23T07:12:49;9.90;99.90
12872;DHT22;6504;53.766;9.626;2022-09-23T07:15:17;10.00;99.90
12872;DHT22;6504;53.766;9.626;2022-09-23T07:17:45;10.00;99.90
12872;DHT22;6504;53.766;9.626;2022-09-23T07:20:15;10.00;99.90
12872;DHT22;6504;53.766;9.626;2022-09-23T07:22:48;10.10;99.90
12872;DHT22;6504;53.766;9.626;2022-09-23T07:25:19;10.10;99.90
12872;DHT22;6504;53.766;9.626;2022-09-23T07:27:48;10.20;99.90
12872;DHT22;6504;53.766;9.626;2022-09-23T07:30:16;10.20;99.90
12872;DHT22;6504;53.766;9.626;2022-09-23T07:32:51;10.30;99.90
12872;DHT22;6504;53.766;9.626;2022-09-23T07:35:19;10.40;99.90
12872;DHT22;6504;53.766;9.626;2022-09-23T07:37:49;10.40;99.90
12872;DHT22;6504;53.766;9.626;2022-09-23T07:40:20;10.50;99.90
12872;DHT22;6504;53.766;9.626;2022-09-23T07:42:49;10.60;99.90
12872;DHT22;6504;53.766;9.626;2022-09-23T07:45:17;10.60;99.90
12872;DHT22;6504;53.766;9.626;2022-09-23T07:47:49;10.70;99.90
12872;DHT22;6504;53.766;9.626;2022-09-23T07:50:17;10.80;99.90
12872;DHT22;6504;53.766;9.626;2022-09-23T07:52:45;10.80;99.90
12872;DHT22;6504;53.766;9.626;2022-09-23T07:55:13;10.90;99.90
12872;DHT22;6504;53.766;9.626;2022-09-23T07:57:48;11.00;99.90
12872;DHT22;6504;53.766;9.626;2022-09-23T08:00:18;11.00;99.90
12872;DHT22;6504;53.766;9.626;2022-09-23T08:02:47;11.10;99.90
12872;DHT22;6504;53.766;9.626;2022-09-23T08:05:19;11.10;99.90
12872;DHT22;6504;53.766;9.626;2022-09-23T08:07:48;11.20;99.90
12872;DHT22;6504;53.766;9.626;2022-09-23T08:10:16;11.20;99.90
12872;DHT22;6504;53.766;9.626;2022-09-23T08:12:48;11.30;99.90
12872;DHT22;6504;53.766;9.626;2022-09-23T08:15:16;11.30;99.90
12872;DHT22;6504;53.766;9.626;2022-09-23T08:17:44;11.40;99.90
12872;DHT22;6504;53.766;9.626;2022-09-23T08:20:16;11.40;99.90
12872;DHT22;6504;53.766;9.626;2022-09-23T08:22:58;11.50;99.90
12872;DHT22;6504;53.766;9.626;2022-09-23T08:25:26;11.50;99.90
12872;DHT22;6504;53.766;9.626;2022-09-23T08:27:59;11.60;99.90
12872;DHT22;6504;53.766;9.626;2022-09-23T08:30:27;11.60;99.90
12872;DHT22;6504;53.766;9.626;2022-09-23T08:32:55;11.80;99.90
12872;DHT22;6504;53.766;9.626;2022-09-23T08:35:23;11.90;99.90
12872;DHT22;6504;53.766;9.626;2022-09-23T08:37:51;12.00;99.90
12872;DHT22;6504;53.766;9.626;2022-09-23T08:40:19;12.00;99.90
12872;DHT22;6504;53.766;9.626;2022-09-23T08:42:48;12.10;99.90
12872;DHT22;6504;53.766;9.626;2022-09-23T08:45:23;12.20;99.90
12872;DHT22;6504;53.766;9.626;2022-09-23T08:47:55;12.40;99.90
12872;DHT22;6504;53.766;9.626;2022-09-23T08:50:30;12.40;99.90
12872;DHT22;6504;53.766;9.626;2022-09-23T08:53:06;12.60;99.90
12872;DHT22;6504;53.766;9.626;2022-09-23T08:55:41;12.70;99.90
12872;DHT22;6504;53.766;9.626;2022-09-23T08:58:27;12.80;99.90
12872;DHT22;6504;53.766;9.626;2022-09-23T09:01:09;12.90;99.90
12872;DHT22;6504;53.766;9.626;2022-09-23T09:03:48;13.00;99.90
12872;DHT22;6504;53.766;9.626;2022-09-23T09:06:19;13.10;99.90
12872;DHT22;6504;53.766;9.626;2022-09-23T09:08:54;13.10;99.90
12872;DHT22;6504;53.766;9.626;2022-09-23T09:11:28;13.20;99.90
12872;DHT22;6504;53.766;9.626;2022-09-23T09:14:10;13.20;99.90
12872;DHT22;6504;53.766;9.626;2022-09-23T09:16:53;13.30;99.90
12872;DHT22;6504;53.766;9.626;2022-09-23T09:22:39;13.50;99.90
12872;DHT22;6504;53.766;9.626;2022-09-23T09:25:27;13.60;99.90
12872;DHT22;6504;53.766;9.626;2022-09-23T09:28:00;13.60;99.90
12872;DHT22;6504;53.766;9.626;2022-09-23T09:30:31;13.70;99.90
12872;DHT22;6504;53.766;9.626;2022-09-23T09:33:03;13.80;99.90
12872;DHT22;6504;53.766;9.626;2022-09-23T09:35:35;13.90;99.90
12872;DHT22;6504;53.766;9.626;2022-09-23T09:38:09;14.00;99.90
12872;DHT22;6504;53.766;9.626;2022-09-23T09:40:45;14.00;99.90
12872;DHT22;6504;53.766;9.626;2022-09-23T09:43:16;14.10;99.90
12872;DHT22;6504;53.766;9.626;2022-09-23T09:45:59;14.20;99.90
12872;DHT22;6504;53.766;9.626;2022-09-23T09:48:35;14.30;99.90
12872;DHT22;6504;53.766;9.626;2022-09-23T09:51:20;14.30;99.90
12872;DHT22;6504;53.766;9.626;2022-09-23T09:53:49;14.40;99.90
12872;DHT22;6504;53.766;9.626;2022-09-23T09:56:20;14.50;99.90
12872;DHT22;6504;53.766;9.626;2022-09-23T09:58:57;14.60;99.90
12872;DHT22;6504;53.766;9.626;2022-09-23T10:01:28;14.70;99.90
12872;DHT22;6504;53.766;9.626;2022-09-23T10:04:03;14.70;99.90
12872;DHT22;6504;53.766;9.626;2022-09-23T10:06:36;14.80;99.90
12872;DHT22;6504;53.766;9.626;2022-09-23T10:09:16;14.90;99.90
12872;DHT22;6504;53.766;9.626;2022-09-23T10:12:07;15.00;99.90
12872;DHT22;6504;53.766;9.626;2022-09-23T10:14:41;15.00;99.90
12872;DHT22;6504;53.766;9.626;2022-09-23T10:17:14;15.10;99.90
12872;DHT22;6504;53.766;9.626;2022-09-23T10:19:47;15.10;99.90
12872;DHT22;6504;53.766;9.626;2022-09-23T10:22:22;15.20;99.90
12872;DHT22;6504;53.766;9.626;2022-09-23T10:24:53;15.30;99.90
12872;DHT22;6504;53.766;9.626;2022-09-23T10:27:27;15.40;99.90
12872;DHT22;6504;53.766;9.626;2022-09-23T10:29:58;15.50;99.90
12872;DHT22;6504;53.766;9.626;2022-09-23T10:32:29;15.60;99.90
12872;DHT22;6504;53.766;9.626;2022-09-23T10:35:02;15.70;99.90
12872;DHT22;6504;53.766;9.626;2022-09-23T10:37:36;15.80;99.90
12872;DHT22;6504;53.766;9.626;2022-09-23T10:40:20;15.90;99.90
12872;DHT22;6504;53.766;9.626;2022-09-23T10:43:26;16.00;99.90
12872;DHT22;6504;53.766;9.626;2022-09-23T10:46:17;16.10;99.90
12872;DHT22;6504;53.766;9.626;2022-09-23T10:49:26;16.10;99.90
12872;DHT22;6504;53.766;9.626;2022-09-23T10:52:14;16.30;99.90
12872;DHT22;6504;53.766;9.626;2022-09-23T10:54:54;16.30;99.90
12872;DHT22;6504;53.766;9.626;2022-09-23T10:57:39;16.40;99.90
12872;DHT22;6504;53.766;9.626;2022-09-23T11:00:18;16.40;99.90
12872;DHT22;6504;53.766;9.626;2022-09-23T11:03:15;16.50;99.90
12872;DHT22;6504;53.766;9.626;2022-09-23T11:05:50;16.60;99.90
12872;DHT22;6504;53.766;9.626;2022-09-23T11:11:40;16.70;99.90
12872;DHT22;6504;53.766;9.626;2022-09-23T11:14:36;16.70;99.90
12872;DHT22;6504;53.766;9.626;2022-09-23T11:17:22;16.80;99.90
12872;DHT22;6504;53.766;9.626;2022-09-23T11:20:09;16.80;99.90
12872;DHT22;6504;53.766;9.626;2022-09-23T11:22:56;16.90;99.90
12872;DHT22;6504;53.766;9.626;2022-09-23T11:25:40;16.90;99.90
12872;DHT22;6504;53.766;9.626;2022-09-23T11:28:31;17.00;99.90
12872;DHT22;6504;53.766;9.626;2022-09-23T11:31:10;17.00;99.90
12872;DHT22;6504;53.766;9.626;2022-09-23T11:33:52;17.10;99.90
12872;DHT22;6504;53.766;9.626;2022-09-23T11:36:31;17.20;99.90
12872;DHT22;6504;53.766;9.626;2022-09-23T11:39:08;17.30;99.90
12872;DHT22;6504;53.766;9.626;2022-09-23T11:41:42;17.40;99.90
12872;DHT22;6504;53.766;9.626;2022-09-23T11:44:14;17.50;99.90
12872;DHT22;6504;53.766;9.626;2022-09-23T11:46:48;17.50;99.90
12872;DHT22;6504;53.766;9.626;2022-09-23T11:49:26;17.50;99.90
12872;DHT22;6504;53.766;9.626;2022-09-23T11:52:02;17.60;99.90
12872;DHT22;6504;53.766;9.626;2022-09-23T11:54:38;17.60;99.90
12872;DHT22;6504;53.766;9.626;2022-09-23T11:57:18;17.70;99.90
12872;DHT22;6504;53.766;9.626;2022-09-23T11:59:55;17.70;99.90
12872;DHT22;6504;53.766;9.626;2022-09-23T12:02:27;17.80;99.90
12872;DHT22;6504;53.766;9.626;2022-09-23T12:05:07;17.80;99.90
12872;DHT22;6504;53.766;9.626;2022-09-23T12:07:45;17.80;99.90
12872;DHT22;6504;53.766;9.626;2022-09-23T12:10:20;17.80;99.90
12872;DHT22;6504;53.766;9.626;2022-09-23T12:12:58;17.80;99.90
12872;DHT22;6504;53.766;9.626;2022-09-23T12:15:42;17.80;99.90
12872;DHT22;6504;53.766;9.626;2022-09-23T12:18:44;17.80;99.90
12872;DHT22;6504;53.766;9.626;2022-09-23T12:24:44;17.90;99.90
12872;DHT22;6504;53.766;9.626;2022-09-23T12:27:19;17.90;99.90
12872;DHT22;6504;53.766;9.626;2022-09-23T12:29:55;18.00;99.90
12872;DHT22;6504;53.766;9.626;2022-09-23T12:32:29;18.00;99.90
12872;DHT22;6504;53.766;9.626;2022-09-23T12:35:00;18.00;99.90
12872;DHT22;6504;53.766;9.626;2022-09-23T12:37:33;18.00;99.90
12872;DHT22;6504;53.766;9.626;2022-09-23T12:40:07;18.00;99.90
12872;DHT22;6504;53.766;9.626;2022-09-23T12:42:41;18.00;99.90
12872;DHT22;6504;53.766;9.626;2022-09-23T12:45:33;18.10;99.90
12872;DHT22;6504;53.766;9.626;2022-09-23T12:48:03;18.10;99.90
12872;DHT22;6504;53.766;9.626;2022-09-23T12:54:02;18.10;99.90
12872;DHT22;6504;53.766;9.626;2022-09-23T12:57:01;18.20;99.90
12872;DHT22;6504;53.766;9.626;2022-09-23T12:59:53;18.20;99.90
12872;DHT22;6504;53.766;9.626;2022-09-23T13:02:27;18.10;99.90
12872;DHT22;6504;53.766;9.626;2022-09-23T13:05:13;18.20;99.90
12872;DHT22;6504;53.766;9.626;2022-09-23T13:08:06;18.20;99.90
12872;DHT22;6504;53.766;9.626;2022-09-23T13:10:41;18.20;99.90
12872;DHT22;6504;53.766;9.626;2022-09-23T13:13:20;18.20;99.90
12872;DHT22;6504;53.766;9.626;2022-09-23T13:15:52;18.10;99.90
12872;DHT22;6504;53.766;9.626;2022-09-23T13:18:49;18.10;99.90
12872;DHT22;6504;53.766;9.626;2022-09-23T13:24:47;18.10;99.90
12872;DHT22;6504;53.766;9.626;2022-09-23T13:27:28;18.10;99.90
12872;DHT22;6504;53.766;9.626;2022-09-23T13:30:04;18.10;99.90
12872;DHT22;6504;53.766;9.626;2022-09-23T13:32:38;18.10;99.90
12872;DHT22;6504;53.766;9.626;2022-09-23T13:35:17;18.10;99.90
12872;DHT22;6504;53.766;9.626;2022-09-23T13:37:49;18.20;99.90
12872;DHT22;6504;53.766;9.626;2022-09-23T13:40:20;18.20;99.90
12872;DHT22;6504;53.766;9.626;2022-09-23T13:42:55;18.30;99.90
12872;DHT22;6504;53.766;9.626;2022-09-23T13:45:26;18.30;99.90
12872;DHT22;6504;53.766;9.626;2022-09-23T13:48:01;18.40;99.90
12872;DHT22;6504;53.766;9.626;2022-09-23T13:50:35;18.40;99.90
12872;DHT22;6504;53.766;9.626;2022-09-23T13:53:09;18.40;99.90
12872;DHT22;6504;53.766;9.626;2022-09-23T13:55:38;18.50;99.90
12872;DHT22;6504;53.766;9.626;2022-09-23T13:58:15;18.50;99.90
12872;DHT22;6504;53.766;9.626;2022-09-23T14:00:45;18.50;99.90
12872;DHT22;6504;53.766;9.626;2022-09-23T14:03:22;18.50;99.90
12872;DHT22;6504;53.766;9.626;2022-09-23T14:06:07;18.50;99.90
12872;DHT22;6504;53.766;9.626;2022-09-23T14:08:44;18.50;99.90
12872;DHT22;6504;53.766;9.626;2022-09-23T14:11:16;18.50;99.90
12872;DHT22;6504;53.766;9.626;2022-09-23T14:13:46;18.50;99.90
12872;DHT22;6504;53.766;9.626;2022-09-23T14:16:16;18.50;99.90
12872;DHT22;6504;53.766;9.626;2022-09-23T14:18:50;18.50;99.90
12872;DHT22;6504;53.766;9.626;2022-09-23T14:21:30;18.50;99.90
12872;DHT22;6504;53.766;9.626;2022-09-23T14:24:29;18.50;99.90
12872;DHT22;6504;53.766;9.626;2022-09-23T14:27:00;18.50;99.90
12872;DHT22;6504;53.766;9.626;2022-09-23T14:29:32;18.40;99.90
12872;DHT22;6504;53.766;9.626;2022-09-23T14:32:03;18.50;99.90
12872;DHT22;6504;53.766;9.626;2022-09-23T14:34:43;18.40;99.90
12872;DHT22;6504;53.766;9.626;2022-09-23T14:37:26;18.40;99.90
12872;DHT22;6504;53.766;9.626;2022-09-23T14:40:14;18.40;99.90
12872;DHT22;6504;53.766;9.626;2022-09-23T14:42:45;18.40;99.90
12872;DHT22;6504;53.766;9.626;2022-09-23T14:45:22;18.40;99.90
12872;DHT22;6504;53.766;9.626;2022-09-23T14:47:56;18.40;99.90
12872;DHT22;6504;53.766;9.626;2022-09-23T14:50:26;18.30;99.90
12872;DHT22;6504;53.766;9.626;2022-09-23T14:53:35;18.30;99.90
12872;DHT22;6504;53.766;9.626;2022-09-23T14:56:15;18.20;99.90
12872;DHT22;6504;53.766;9.626;2022-09-23T14:58:46;18.20;99.90
12872;DHT22;6504;53.766;9.626;2022-09-23T15:01:34;18.20;99.90
12872;DHT22;6504;53.766;9.626;2022-09-23T15:04:12;18.10;99.90
12872;DHT22;6504;53.766;9.626;2022-09-23T15:06:48;18.10;99.90
12872;DHT22;6504;53.766;9.626;2022-09-23T15:09:21;18.00;99.90
12872;DHT22;6504;53.766;9.626;2022-09-23T15:11:51;18.00;99.90
12872;DHT22;6504;53.766;9.626;2022-09-23T15:14:25;18.00;99.90
12872;DHT22;6504;53.766;9.626;2022-09-23T15:17:15;18.00;99.90
12872;DHT22;6504;53.766;9.626;2022-09-23T15:19:44;18.00;99.90
12872;DHT22;6504;53.766;9.626;2022-09-23T15:22:22;18.00;99.90
12872;DHT22;6504;53.766;9.626;2022-09-23T15:24:52;18.00;99.90
12872;DHT22;6504;53.766;9.626;2022-09-23T15:27:30;18.00;99.90
12872;DHT22;6504;53.766;9.626;2022-09-23T15:30:12;18.00;99.90
12872;DHT22;6504;53.766;9.626;2022-09-23T15:32:42;18.00;99.90
12872;DHT22;6504;53.766;9.626;2022-09-23T15:35:11;18.00;99.90
12872;DHT22;6504;53.766;9.626;2022-09-23T15:37:41;18.00;99.90
12872;DHT22;6504;53.766;9.626;2022-09-23T15:40:17;18.00;99.90
12872;DHT22;6504;53.766;9.626;2022-09-23T15:42:47;18.00;99.90
12872;DHT22;6504;53.766;9.626;2022-09-23T15:45:26;18.00;99.90
12872;DHT22;6504;53.766;9.626;2022-09-23T15:47:58;18.00;99.90
12872;DHT22;6504;53.766;9.626;2022-09-23T15:50:33;18.00;99.90
12872;DHT22;6504;53.766;9.626;2022-09-23T15:53:02;18.00;99.90
12872;DHT22;6504;53.766;9.626;2022-09-23T15:55:35;18.00;99.90
12872;DHT22;6504;53.766;9.626;2022-09-23T15:58:03;18.00;99.90
12872;DHT22;6504;53.766;9.626;2022-09-23T16:00:32;18.00;99.90
12872;DHT22;6504;53.766;9.626;2022-09-23T16:03:02;18.00;99.90
12872;DHT22;6504;53.766;9.626;2022-09-23T16:05:36;17.90;99.90
12872;DHT22;6504;53.766;9.626;2022-09-23T16:08:05;17.90;99.90
12872;DHT22;6504;53.766;9.626;2022-09-23T16:10:40;17.90;99.90
12872;DHT22;6504;53.766;9.626;2022-09-23T16:13:10;17.90;99.90
12872;DHT22;6504;53.766;9.626;2022-09-23T16:15:39;17.90;99.90
12872;DHT22;6504;53.766;9.626;2022-09-23T16:18:08;17.90;99.90
12872;DHT22;6504;53.766;9.626;2022-09-23T16:20:38;17.90;99.90
12872;DHT22;6504;53.766;9.626;2022-09-23T16:23:20;17.80;99.90
12872;DHT22;6504;53.766;9.626;2022-09-23T16:26:06;17.80;99.90
12872;DHT22;6504;53.766;9.626;2022-09-23T16:28:40;17.80;99.90
12872;DHT22;6504;53.766;9.626;2022-09-23T16:31:14;17.80;99.90
12872;DHT22;6504;53.766;9.626;2022-09-23T16:33:43;17.80;99.90
12872;DHT22;6504;53.766;9.626;2022-09-23T16:36:14;17.70;99.90
12872;DHT22;6504;53.766;9.626;2022-09-23T16:38:44;17.70;99.90
12872;DHT22;6504;53.766;9.626;2022-09-23T16:41:16;17.70;99.90
12872;DHT22;6504;53.766;9.626;2022-09-23T16:43:44;17.60;99.90
12872;DHT22;6504;53.766;9.626;2022-09-23T16:46:15;17.60;99.90
12872;DHT22;6504;53.766;9.626;2022-09-23T16:48:44;17.50;99.90
12872;DHT22;6504;53.766;9.626;2022-09-23T16:51:20;17.50;99.90
12872;DHT22;6504;53.766;9.626;2022-09-23T16:53:50;17.50;99.90
12872;DHT22;6504;53.766;9.626;2022-09-23T16:56:27;17.40;99.90
12872;DHT22;6504;53.766;9.626;2022-09-23T16:58:56;17.40;99.90